Current | Forecast
Updated: 4:00 AM EEST on April 22, 2018
Observed at Dnipropetrovs'k, Ukraine
Temperature 10°C
Humidity 66%
Dew Point 4°C
Wind West at 14 km/h
Pressure 1004 hPa (Steady)
Conditions Clear
Visibility -
UV N/A
Clouds
Yesterday's Maximum 21°C
Yesterday's Minimum 5°C approx.
Yesterday's Heating Degree Days 10 approx.
Sunrise5:38 AM EEST
Sunset7:42 PM EEST
Moon Rise10:50 AM EEST
Moon Set1:40 AM EEST
Moon PhaseMoon Phase
Waxing Crescent
Raw METARMETAR UKDD 220100Z 27004MPS CAVOK 10/04 Q1004 R26/090070 TEMPO 28010G15MPS


Monday
. High: 62° F.
Tuesday
. High: 62° F.
Wednesday
. High: 64° F.
Thursday
. High: 64° F.
Friday
. High: 64° F.
Saturday
. High: 55° F.
Sunday
. High: 62° F.
Monday
. High: 64° F.

Units: English | Metric

Find the Weather for any City, State or Zipcode, or Country:

U.S. State List | Severe Weather | Tropical Storms | Ski Conditions
United States | Canada | Central America | South America | Asia | Europe | Australia | Africa | Islands

Weather Underground

© Copyright 2018
The Weather Company, LLC